Terminal Aerodrome Forecast
Issued by NWS

Home | Current Version | Previous Version | Text Only | Print | Product List | Glossary Off
Versions: 1 2 3 4 5 6 7 8 9 10 11 12 13 14 15 16 17 18 19 20 21 22 23 24 25 26

000
FTUS43 KBIS 010601 AAA
TAFDIK
TAF AMD
KDIK 010601Z 0106/0206 09008KT 4SM BR SCT006 BKN030
      TEMPO 0106/0108 2SM BR OVC005
     FM011500 02007KT P6SM VCSH BKN050
     FM012100 35007KT P6SM SCT050=

USA.gov is the U.S. government's official web portal to all federal, state and local government web resources and services.